createdAt,value
2022-09-01T00:00:38.671Z,116.88
2022-09-01T00:03:28.190Z,118.63
2022-09-01T00:06:22.664Z,139.93
2022-09-01T00:09:15.947Z,130.25
2022-09-01T00:12:07.166Z,153.07
2022-09-01T00:15:09.193Z,117.95
2022-09-01T00:17:56.300Z,134.20
2022-09-01T00:23:49.855Z,113.40
2022-09-01T00:26:40.139Z,114.28
2022-09-01T00:29:28.690Z,113.90
2022-09-01T00:32:29.175Z,168.05
2022-09-01T00:35:18.666Z,142.07
2022-09-01T00:38:06.624Z,173.82
2022-09-01T00:40:55.663Z,195.88
2022-09-01T00:43:52.754Z,273.65
2022-09-01T00:46:55.514Z,165.02
2022-09-01T00:52:53.201Z,150.38
2022-09-01T00:55:40.638Z,230.05
2022-09-01T00:58:37.901Z,171.45
2022-09-01T01:01:25.351Z,182.75
2022-09-01T01:04:14.961Z,277.08
2022-09-01T01:07:03.020Z,171.98
2022-09-01T01:10:03.005Z,275.83
2022-09-01T01:12:54.465Z,345.55
2022-09-01T01:15:45.070Z,224.50
2022-09-01T01:18:32.262Z,220.43
2022-09-01T01:22:02.825Z,224.43
2022-09-01T01:24:50.087Z,200.60
2022-09-01T01:27:50.058Z,203.13
2022-09-01T01:30:39.704Z,177.80
2022-09-01T01:33:42.643Z,209.32
2022-09-01T01:36:45.254Z,185.95
2022-09-01T01:39:33.105Z,220.17
2022-09-01T01:42:24.335Z,226.60
2022-09-01T01:45:17.264Z,172.95
2022-09-01T01:48:11.279Z,376.77
2022-09-01T01:51:04.913Z,165.75
2022-09-01T01:54:00.093Z,166.82
2022-09-01T01:56:47.524Z,144.50
2022-09-01T01:59:35.090Z,152.88
2022-09-01T02:02:34.823Z,130.23
2022-09-01T02:05:30.296Z,130.18
2022-09-01T02:08:21.228Z,142.50
2022-09-01T02:11:09.119Z,143.88
2022-09-01T02:13:57.650Z,120.68
2022-09-01T02:16:45.019Z,122.25
2022-09-01T02:19:32.980Z,166.32
2022-09-01T02:22:21.851Z,190.02
2022-09-01T02:25:09.433Z,201.20
2022-09-01T02:27:56.702Z,373.80
2022-09-01T02:34:10.805Z,183.07
2022-09-01T02:36:58.469Z,430.65
2022-09-01T02:39:46.222Z,294.73
2022-09-01T02:42:33.704Z,238.00
2022-09-01T02:45:20.998Z,187.55
2022-09-01T02:48:10.491Z,208.45
2022-09-01T02:50:59.487Z,158.45
2022-09-01T02:53:52.730Z,221.68
2022-09-01T02:56:40.116Z,254.95
2022-09-01T02:59:30.399Z,357.98
2022-09-01T03:02:17.946Z,281.90
2022-09-01T03:05:06.029Z,249.68
2022-09-01T03:08:00.542Z,241.02
2022-09-01T03:10:47.988Z,212.32
2022-09-01T03:13:39.203Z,225.05
2022-09-01T03:16:27.452Z,225.10
2022-09-01T03:19:15.203Z,204.23
2022-09-01T03:22:02.718Z,427.55
2022-09-01T03:28:41.559Z,180.30
2022-09-01T03:34:34.546Z,173.20
2022-09-01T03:37:23.433Z,197.98
2022-09-01T03:40:13.719Z,200.68
2022-09-01T03:43:01.995Z,238.50
2022-09-01T03:45:49.567Z,252.93
2022-09-01T03:48:39.502Z,239.73
2022-09-01T03:51:31.025Z,168.07
2022-09-01T03:54:18.262Z,271.10
2022-09-01T03:57:09.958Z,348.10
2022-09-01T04:00:00.675Z,407.57
2022-09-01T04:06:55.838Z,199.75
2022-09-01T04:09:48.991Z,345.75
2022-09-01T04:12:40.317Z,308.58
2022-09-01T04:15:28.211Z,175.48
2022-09-01T04:18:40.556Z,214.15
2022-09-01T04:21:33.612Z,581.63
2022-09-01T04:24:28.339Z,371.55
2022-09-01T04:27:18.293Z,334.92
2022-09-01T04:30:10.899Z,296.10
2022-09-01T04:32:58.038Z,369.55
2022-09-01T04:35:45.608Z,657.35
2022-09-01T04:38:35.649Z,262.15
2022-09-01T04:41:25.816Z,235.05
2022-09-01T04:44:16.779Z,257.25
2022-09-01T04:47:04.073Z,236.80
2022-09-01T04:50:00.296Z,286.55
2022-09-01T04:52:47.931Z,308.75
2022-09-01T04:55:41.208Z,299.45
2022-09-01T04:58:30.342Z,268.73
2022-09-01T05:01:20.016Z,217.45
2022-09-01T05:04:07.287Z,241.82
2022-09-01T05:07:01.395Z,223.05
2022-09-01T05:09:49.226Z,288.42
2022-09-01T05:12:36.553Z,296.67
2022-09-01T05:15:23.879Z,303.88
2022-09-01T05:18:11.070Z,296.27
2022-09-01T05:21:08.208Z,277.33
2022-09-01T05:23:58.412Z,237.02
2022-09-01T05:26:47.403Z,244.52
2022-09-01T05:29:37.987Z,281.50
2022-09-01T05:32:26.197Z,296.55
2022-09-01T05:35:13.580Z,259.10
2022-09-01T05:38:00.908Z,257.52
2022-09-01T05:41:02.113Z,228.40
2022-09-01T05:43:57.820Z,207.35
2022-09-01T05:46:47.718Z,226.43
2022-09-01T05:49:39.107Z,223.18
2022-09-01T05:52:49.305Z,264.75
2022-09-01T05:55:39.636Z,240.77
2022-09-01T05:59:22.614Z,230.80
2022-09-01T06:01:37.836Z,214.45
2022-09-01T06:04:25.986Z,245.70
2022-09-01T06:07:16.420Z,294.95
2022-09-01T06:10:04.786Z,266.02
2022-09-01T06:12:54.471Z,267.70
2022-09-01T06:15:43.191Z,297.83
2022-09-01T06:18:34.353Z,297.40
2022-09-01T06:21:22.641Z,285.70
2022-09-01T06:24:09.767Z,262.05
2022-09-01T06:26:57.046Z,275.80
2022-09-01T06:29:45.543Z,253.95
2022-09-01T06:32:38.504Z,286.00
2022-09-01T06:35:29.564Z,260.42
2022-09-01T06:38:19.172Z,231.38
2022-09-01T06:41:09.282Z,238.45
2022-09-01T06:44:01.955Z,239.88
2022-09-01T06:46:53.473Z,203.52
2022-09-01T06:49:40.874Z,185.60
2022-09-01T06:52:28.484Z,207.40
2022-09-01T06:55:17.466Z,198.60
2022-09-01T06:58:12.612Z,175.20
2022-09-01T07:01:07.344Z,173.98
2022-09-01T07:03:59.286Z,148.88
2022-09-01T07:07:00.219Z,166.00
2022-09-01T07:10:05.876Z,167.20
2022-09-01T07:13:08.957Z,145.98
2022-09-01T07:19:13.321Z,87.70
2022-09-01T07:22:35.073Z,79.95
2022-09-01T07:25:12.936Z,65.45
2022-09-01T07:28:03.824Z,47.42
2022-09-01T07:31:48.886Z,40.60
2022-09-01T07:43:40.357Z,26.58
2022-09-01T07:46:38.364Z,25.67
2022-09-01T07:49:35.461Z,28.58
2022-09-01T07:52:41.400Z,25.35
2022-09-01T07:55:29.219Z,26.60
2022-09-01T07:58:26.227Z,24.40
2022-09-01T08:01:22.381Z,21.23
2022-09-01T08:04:09.745Z,22.05
2022-09-01T08:06:57.979Z,21.20
2022-09-01T08:09:47.562Z,19.92
2022-09-01T08:12:35.813Z,20.80
2022-09-01T08:15:40.987Z,20.73
2022-09-01T08:18:48.161Z,19.90
2022-09-01T08:21:38.198Z,13.77
2022-09-01T08:24:25.532Z,14.18
2022-09-01T08:27:13.997Z,13.27
2022-09-01T08:30:01.402Z,11.98
2022-09-01T08:32:49.614Z,12.90
2022-09-01T08:35:42.555Z,11.57
2022-09-01T08:38:35.359Z,12.65
2022-09-01T08:41:36.574Z,11.65
2022-09-01T08:44:47.388Z,13.63
2022-09-01T08:47:56.032Z,13.50
2022-09-01T08:50:51.137Z,16.35
2022-09-01T08:54:18.054Z,12.85
2022-09-01T08:57:35.083Z,11.93
2022-09-01T09:00:26.498Z,12.15
2022-09-01T09:03:41.614Z,13.27
2022-09-01T09:07:02.308Z,13.52
2022-09-01T09:10:03.630Z,11.88
2022-09-01T09:13:01.617Z,10.38
2022-09-01T09:16:08.439Z,11.10
2022-09-01T09:19:18.620Z,10.68
2022-09-01T09:22:16.745Z,12.80
2022-09-01T09:25:20.719Z,10.13
2022-09-01T09:28:09.443Z,10.88
2022-09-01T09:31:32.920Z,9.15
2022-09-01T09:34:39.812Z,11.27
2022-09-01T09:37:29.271Z,8.38
2022-09-01T09:40:25.379Z,7.70
2022-09-01T09:43:16.202Z,7.80
2022-09-01T09:46:43.637Z,7.35
2022-09-01T09:49:36.520Z,7.85
2022-09-01T09:52:31.192Z,6.68
2022-09-01T09:55:28.191Z,6.35
2022-09-01T09:58:16.137Z,7.78
2022-09-01T10:01:17.781Z,8.23
2022-09-01T10:04:05.482Z,7.70
2022-09-01T10:06:55.680Z,6.70
2022-09-01T10:09:43.204Z,5.97
2022-09-01T10:12:32.101Z,5.70
2022-09-01T10:15:23.767Z,5.18
2022-09-01T10:18:28.483Z,8.07
2022-09-01T10:21:30.553Z,5.72
2022-09-01T10:24:44.646Z,7.15
2022-09-01T10:27:37.887Z,5.93
2022-09-01T10:30:25.604Z,5.97
2022-09-01T10:33:24.401Z,5.78
2022-09-01T10:36:15.896Z,4.72
2022-09-01T10:39:08.773Z,4.95
2022-09-01T10:42:07.700Z,9.32
2022-09-01T10:45:01.951Z,5.43
2022-09-01T10:47:49.381Z,6.15
2022-09-01T10:50:37.179Z,4.90
2022-09-01T10:53:37.072Z,5.28
2022-09-01T10:56:51.862Z,3.75
2022-09-01T10:59:44.233Z,5.63
2022-09-01T11:02:42.428Z,4.53
2022-09-01T11:06:13.732Z,7.82
2022-09-01T11:09:06.933Z,4.10
2022-09-01T11:12:10.373Z,3.70
2022-09-01T11:15:06.954Z,4.50
2022-09-01T11:17:59.888Z,5.47
2022-09-01T11:20:50.804Z,3.45
2022-09-01T11:23:39.386Z,2.67
2022-09-01T11:26:35.560Z,2.75
2022-09-01T11:30:00.312Z,2.83
2022-09-01T11:33:09.969Z,2.78
2022-09-01T11:36:10.265Z,3.40
2022-09-01T11:39:20.688Z,2.55
2022-09-01T11:42:19.350Z,2.40
2022-09-01T11:45:24.928Z,2.28
2022-09-01T11:48:14.722Z,3.47
2022-09-01T11:51:03.989Z,2.60
2022-09-01T11:53:58.297Z,3.17
2022-09-01T11:56:56.332Z,6.43
2022-09-01T11:59:44.953Z,2.80
2022-09-01T12:02:46.103Z,3.13
2022-09-01T12:05:36.908Z,2.13
2022-09-01T12:08:26.974Z,3.28
2022-09-01T12:11:22.907Z,3.85
2022-09-01T12:14:19.301Z,3.22
2022-09-01T12:17:07.842Z,2.80
2022-09-01T12:19:55.092Z,2.25
2022-09-01T12:22:43.281Z,1.95
2022-09-01T12:25:34.759Z,3.17
2022-09-01T12:28:27.076Z,2.60
2022-09-01T12:31:21.995Z,2.30
2022-09-01T12:34:35.429Z,1.20
2022-09-01T12:37:26.494Z,1.45
2022-09-01T12:40:37.750Z,1.50
2022-09-01T12:43:44.103Z,3.08
2022-09-01T12:46:43.491Z,2.60
2022-09-01T12:49:50.804Z,3.38
2022-09-01T12:52:48.478Z,2.67
2022-09-01T12:55:52.564Z,1.98
2022-09-01T12:58:42.094Z,3.50
2022-09-01T13:01:34.692Z,2.20
2022-09-01T13:04:22.611Z,3.65
2022-09-01T13:07:09.851Z,2.63
2022-09-01T13:09:57.543Z,1.90
2022-09-01T13:12:45.755Z,1.92
2022-09-01T13:15:34.364Z,2.03
2022-09-01T13:18:25.664Z,3.53
2022-09-01T13:21:13.480Z,3.87
2022-09-01T13:24:01.917Z,2.47
2022-09-01T13:30:07.050Z,1.88
2022-09-01T13:36:42.830Z,1.95
2022-09-01T13:39:10.704Z,2.05
2022-09-01T13:41:57.984Z,4.10
2022-09-01T13:44:48.496Z,2.35
2022-09-01T13:48:15.111Z,3.78
2022-09-01T13:53:59.832Z,2.75
2022-09-01T13:56:49.447Z,3.28
2022-09-01T13:59:39.149Z,3.08
2022-09-01T14:02:26.433Z,3.35
2022-09-01T14:05:15.826Z,5.10
2022-09-01T14:08:04.084Z,3.20
2022-09-01T14:10:52.760Z,3.72
2022-09-01T14:13:46.819Z,3.20
2022-09-01T14:16:34.352Z,3.60
2022-09-01T14:19:22.217Z,6.10
2022-09-01T14:22:09.576Z,4.50
2022-09-01T14:24:56.757Z,5.25
2022-09-01T14:27:44.948Z,2.70
2022-09-01T14:30:33.358Z,2.55
2022-09-01T14:33:24.410Z,3.00
2022-09-01T14:36:19.497Z,2.58
2022-09-01T14:39:16.156Z,4.15
2022-09-01T14:42:04.548Z,2.65
2022-09-01T14:44:52.349Z,2.55
2022-09-01T14:47:44.124Z,2.72
2022-09-01T14:50:35.299Z,3.15
2022-09-01T14:53:25.647Z,2.42
2022-09-01T14:56:13.884Z,3.50
2022-09-01T14:59:06.379Z,3.78
2022-09-01T15:01:54.076Z,2.90
2022-09-01T15:04:43.717Z,3.38
2022-09-01T15:07:55.859Z,2.95
2022-09-01T15:10:43.984Z,3.20
2022-09-01T15:13:31.376Z,3.90
2022-09-01T15:16:27.257Z,2.70
2022-09-01T15:19:14.899Z,3.15
2022-09-01T15:22:02.347Z,3.00
2022-09-01T15:24:56.714Z,3.17
2022-09-01T15:27:46.805Z,3.17
2022-09-01T15:30:35.354Z,3.78
2022-09-01T15:33:23.560Z,2.20
2022-09-01T15:36:18.113Z,2.40
2022-09-01T15:39:06.013Z,3.30
2022-09-01T15:41:53.955Z,3.63
2022-09-01T15:44:43.819Z,3.28
2022-09-01T15:47:33.685Z,2.83
2022-09-01T15:50:24.164Z,2.85
2022-09-01T15:53:19.050Z,2.05
2022-09-01T15:56:06.447Z,2.58
2022-09-01T15:59:03.157Z,2.63
2022-09-01T16:01:51.379Z,2.78
2022-09-01T16:04:40.164Z,2.58
2022-09-01T16:07:27.510Z,1.80
2022-09-01T16:10:14.956Z,2.95
2022-09-01T16:13:03.008Z,2.90
2022-09-01T16:16:06.777Z,3.42
2022-09-01T16:18:59.835Z,2.30
2022-09-01T16:22:09.957Z,4.82
2022-09-01T16:25:01.504Z,3.80
2022-09-01T16:27:49.627Z,5.07
2022-09-01T16:30:37.694Z,6.90
2022-09-01T16:33:25.078Z,4.03
2022-09-01T16:36:18.590Z,3.65
2022-09-01T16:39:17.033Z,4.45
2022-09-01T16:42:22.244Z,3.00
2022-09-01T16:45:15.740Z,5.22
2022-09-01T16:48:25.807Z,4.78
2022-09-01T16:51:25.423Z,4.10
2022-09-01T16:54:25.977Z,3.15
2022-09-01T16:57:41.433Z,4.55
2022-09-01T17:00:40.427Z,4.43
2022-09-01T17:04:17.413Z,4.70
2022-09-01T17:07:24.257Z,2.72
2022-09-01T17:10:48.124Z,3.30
2022-09-01T17:13:42.925Z,4.07
2022-09-01T17:16:49.347Z,3.20
2022-09-01T17:19:42.106Z,4.15
2022-09-01T17:22:31.624Z,6.10
2022-09-01T17:25:41.379Z,3.30
2022-09-01T17:32:05.242Z,4.10
2022-09-01T17:35:21.311Z,6.24
2022-09-01T17:38:29.830Z,4.97
2022-09-01T17:41:37.891Z,3.58
2022-09-01T17:44:56.581Z,4.32
2022-09-01T17:47:51.745Z,6.00
2022-09-01T17:54:27.366Z,3.47
2022-09-01T17:57:34.907Z,5.15
2022-09-01T18:00:34.748Z,5.10
2022-09-01T18:03:57.947Z,5.70
2022-09-01T18:07:05.636Z,5.78
2022-09-01T18:10:00.473Z,3.25
2022-09-01T18:12:52.903Z,5.20
2022-09-01T18:15:55.275Z,5.80
2022-09-01T18:18:51.311Z,6.95
2022-09-01T18:21:49.567Z,5.00
2022-09-01T18:24:54.417Z,4.57
2022-09-01T18:27:45.873Z,5.38
2022-09-01T18:31:23.663Z,4.35
2022-09-01T18:34:43.233Z,6.75
2022-09-01T18:37:55.542Z,3.95
2022-09-01T18:41:23.516Z,3.70
2022-09-01T18:44:38.098Z,4.65
2022-09-01T18:47:38.018Z,7.32
2022-09-01T18:50:31.929Z,3.67
2022-09-01T18:54:00.993Z,5.10
2022-09-01T18:57:05.214Z,4.85
2022-09-01T19:00:17.836Z,4.22
2022-09-01T19:03:11.251Z,5.60
2022-09-01T19:06:18.007Z,7.10
2022-09-01T19:09:18.190Z,4.50
2022-09-01T19:12:16.166Z,4.72
2022-09-01T19:15:04.685Z,5.00
2022-09-01T19:18:05.572Z,4.95
2022-09-01T19:21:27.978Z,5.30
2022-09-01T19:24:38.212Z,5.30
2022-09-01T19:27:30.901Z,7.05
2022-09-01T19:30:18.106Z,5.85
2022-09-01T19:33:06.259Z,5.88
2022-09-01T19:35:59.909Z,8.38
2022-09-01T19:38:51.900Z,8.48
2022-09-01T19:41:47.761Z,7.20
2022-09-01T19:45:10.147Z,6.75
2022-09-01T19:48:06.392Z,9.93
2022-09-01T19:50:59.439Z,6.25
2022-09-01T19:54:16.178Z,6.20
2022-09-01T19:57:33.638Z,8.23
2022-09-01T20:00:51.022Z,7.57
2022-09-01T20:03:44.568Z,7.35
2022-09-01T20:06:37.639Z,6.28
2022-09-01T20:09:48.463Z,6.75
2022-09-01T20:13:03.547Z,7.63
2022-09-01T20:16:29.395Z,9.30
2022-09-01T20:19:41.997Z,7.43
2022-09-01T20:22:41.261Z,7.15
2022-09-01T20:25:45.856Z,11.80
2022-09-01T20:28:55.373Z,13.68
2022-09-01T20:31:50.272Z,8.35
2022-09-01T20:34:46.219Z,10.00
2022-09-01T20:37:46.514Z,7.03
2022-09-01T20:40:40.254Z,7.50
2022-09-01T20:43:41.696Z,9.50
2022-09-01T20:46:29.086Z,10.98
2022-09-01T20:49:16.365Z,7.38
2022-09-01T20:52:38.476Z,7.65
2022-09-01T20:55:30.412Z,10.93
2022-09-01T20:58:44.795Z,8.60
2022-09-01T21:01:36.878Z,8.02
2022-09-01T21:04:54.464Z,9.40
2022-09-01T21:08:14.639Z,8.43
2022-09-01T21:11:34.294Z,7.93
2022-09-01T21:14:31.501Z,12.48
2022-09-01T21:17:24.925Z,8.00
2022-09-01T21:20:38.970Z,9.57
2022-09-01T21:23:38.052Z,11.00
2022-09-01T21:26:30.011Z,8.55
2022-09-01T21:29:23.946Z,9.70
2022-09-01T21:32:13.944Z,9.45
2022-09-01T21:35:05.864Z,9.52
2022-09-01T21:37:55.810Z,8.93
2022-09-01T21:40:49.423Z,12.38
2022-09-01T21:43:41.188Z,12.98
2022-09-01T21:46:28.395Z,8.95
2022-09-01T21:49:20.220Z,13.57
2022-09-01T21:52:07.518Z,8.38
2022-09-01T21:54:55.065Z,9.52
2022-09-01T21:57:45.919Z,8.20
2022-09-01T22:00:35.231Z,10.60
2022-09-01T22:03:24.696Z,11.43
2022-09-01T22:06:12.779Z,8.43
2022-09-01T22:09:03.241Z,9.10
2022-09-01T22:12:08.233Z,9.68
2022-09-01T22:14:56.987Z,7.72
2022-09-01T22:17:45.206Z,10.52
2022-09-01T22:20:35.823Z,9.05
2022-09-01T22:23:23.408Z,8.43
2022-09-01T22:26:22.804Z,8.35
2022-09-01T22:29:10.226Z,10.63
2022-09-01T22:31:57.635Z,9.38
2022-09-01T22:34:44.820Z,9.48
2022-09-01T22:37:32.007Z,9.77
2022-09-01T22:40:20.198Z,11.20
2022-09-01T22:43:07.564Z,10.52
2022-09-01T22:45:55.947Z,10.18
2022-09-01T22:48:43.860Z,10.50
2022-09-01T22:51:31.765Z,10.48
2022-09-01T22:54:19.058Z,10.45
2022-09-01T22:57:06.373Z,11.73
2022-09-01T22:59:53.549Z,10.65
2022-09-01T23:02:40.709Z,13.65
2022-09-01T23:05:29.660Z,10.52
2022-09-01T23:08:17.262Z,12.90
2022-09-01T23:11:04.627Z,13.13
2022-09-01T23:13:53.018Z,14.38
2022-09-01T23:16:43.323Z,15.55
2022-09-01T23:19:32.969Z,11.82
2022-09-01T23:22:22.224Z,10.18
2022-09-01T23:25:12.777Z,12.93
2022-09-01T23:28:01.273Z,14.73
2022-09-01T23:30:52.511Z,10.43
2022-09-01T23:33:39.736Z,11.30
2022-09-01T23:36:28.640Z,11.18
2022-09-01T23:39:15.899Z,11.18
2022-09-01T23:42:06.949Z,9.82
2022-09-01T23:44:54.089Z,9.88
2022-09-01T23:47:43.351Z,10.68
2022-09-01T23:50:30.510Z,11.80
2022-09-01T23:53:18.802Z,13.30
2022-09-01T23:56:12.196Z,12.27
2022-09-01T23:58:59.965Z,14.90
